Oneida, IL (61467)

03:41 PM CST del 16 Gennaio 2017 (GMT -0600)
Northwest Oneida | | Change Station
Avvisi attivi: Dense Fog Advisory

Alt. 814 ft 41.08 °N, 90.23 °W | Updated 3 seconds ago

Pioggia
Pioggia
36.0 °F
Sembra 36 °F
N
2.5
Vento Variabile Vento da Est
Gusts 4.9 mph

Oggi
Massima -- | Minima -- °F
--% Possibilità di precip.
Ieri
Massima -- | Minima -- °F
Precip. -- in
Pressione 29.94 in
Visibilità 1.8 miglia
Nuvole Coperto 200 ft
Raffreddamento del vento 36 °F
Punto di rugiada 33 °F
Umidità 89%
Piovosità 0.63 in
Spessore del manto nevoso Non disponibile.
7:23 AM 4:58 PM
Gobba a levante, 78% visible
METAR KGBG 162135Z AUTO 11007KT 1 3/4SM RA OVC002 03/03 A2994 RMK AO2 LTG DSNT S AND SW P0013 T00270027
Pressione 29.94 in
Visibilità 1.8 miglia
Nuvole Coperto 200 ft
Raffreddamento del vento 36 °F
Punto di rugiada 33 °F
Umidità 89%
Piovosità 0.63 in
Spessore del manto nevoso Non disponibile.
7:23 AM 4:58 PM
Gobba a levante, 78% visible
METAR KGBG 162135Z AUTO 11007KT 1 3/4SM RA OVC002 03/03 A2994 RMK AO2 LTG DSNT S AND SW P0013 T00270027

Get Your Daily Forecast Email!

Thanks for signing up!

Be on the lookout for a verification email in your inbox.

You'll start receiving the daily forecast at 8 AM.

×

10-Day Weather Forecast

Almanac

Astronomia

Jan. 16, 2017 Alba Tramonto
Ora attuale
Crepuscolo civile
Crepuscolo nautico
Crepuscolo astronomico
Luna
Estensione della luce visibile
Lunghezza del giorno
Tomorrow will be .
, % of the Moon is Illuminated

Gli estremi di oggi

State Highs State Lows

Community

WunderPhotos

Upload Photos

1,962,540 foto caricate!

WunderBlog® & News

Nearby

Qualità dell'aria

  Qualità dell'aria Indice AQ Inquinante
Not available.

Profondità neve

Stazione Profondità Altitudine

Attività sismica

Città  Distanza Mag. Data & Ora
Minimo Magnitudo Mostrato è 2.5.

Temperature delle acque costiere

Località Temperatura

Stations

Stazioni meteo nelle vicinanze

Ubicazione della stazione Temp. Raffreddamento del vento Punto di rugiada Umidità Vento Precip. Alt. Aggiornato Tipo
                   

Watches & Warnings

Dense Fog Advisory
Issued: 14:48 CST Jan. 16, 2017 – National Weather Service

... Dense fog advisory in effect until 6 PM CST this evening...

The National Weather Service in Lincoln has issued a dense fog
advisory... which is in effect until 6 PM CST this evening.

* Timing... widespread dense fog will occur through early evening.
Areas of fog will likely linger through the evening, especially
over the Illinois River valley.

* Visibility... around a half mile or less.

* Impacts... fluctuations in visibilities will cause hazardous
driving conditions.

Precautionary/preparedness actions...

A dense fog advisory means visibilities will frequently be
reduced to less than one half mile. If driving... slow down... use
your headlights... and leave plenty of distance ahead of you.